Lynnville, Kentucky
Current Conditions -  °F | °C
As of 11:15 AM on Thursday 27 Nov 2014 (Local Time) from KCEY Reporting Station
Broken Clouds Broken Clouds  
Wind Chill: 24°   Ceiling: 2400
Heat Index: 34°   Visibility: 10mi
Dew Point: 23°   Wind: 15mph
Humidity: 65%   Direction: 330°NNW
Pressure: 30.47"   Gusts: 21mph
Location:  36.56°N, 88.57°W
Report Text: KCEY 271715Z AUTO 33013G18KT 10SM BKN024 01/M05 A3047 RMK AO1
Loading
Personal Weather Stations






























Interactive Weather Map New forecast layout! Learn more

10-Day Weather Forecast

Advertisements
Track Severe Weather on mobile